createdAt,value
2019-04-04T00:02:20.697Z,5.90
2019-04-04T00:04:52.594Z,5.90
2019-04-04T00:07:24.466Z,5.70
2019-04-04T00:09:54.906Z,5.60
2019-04-04T00:12:25.370Z,5.60
2019-04-04T00:14:55.699Z,5.60
2019-04-04T00:17:26.031Z,5.60
2019-04-04T00:19:56.422Z,5.60
2019-04-04T00:22:26.826Z,5.50
2019-04-04T00:24:57.319Z,5.60
2019-04-04T00:27:27.738Z,5.70
2019-04-04T00:29:58.388Z,5.60
2019-04-04T00:32:28.875Z,5.70
2019-04-04T00:34:59.794Z,5.80
2019-04-04T00:37:30.814Z,5.70
2019-04-04T00:40:02.303Z,5.70
2019-04-04T00:42:33.363Z,5.70
2019-04-04T00:45:04.039Z,5.50
2019-04-04T00:47:34.457Z,5.50
2019-04-04T00:50:06.668Z,5.50
2019-04-04T00:52:40.559Z,5.50
2019-04-04T00:55:09.531Z,5.60
2019-04-04T00:57:41.345Z,5.50
2019-04-04T01:00:12.031Z,5.60
2019-04-04T01:02:43.357Z,5.60
2019-04-04T01:05:13.822Z,5.60
2019-04-04T01:07:44.271Z,5.50
2019-04-04T01:10:18.728Z,5.50
2019-04-04T01:12:47.596Z,5.50
2019-04-04T01:15:18.260Z,5.50
2019-04-04T01:17:48.700Z,5.50
2019-04-04T01:20:20.290Z,5.50
2019-04-04T01:22:51.348Z,5.40
2019-04-04T01:25:22.987Z,5.40
2019-04-04T01:27:54.327Z,5.40
2019-04-04T01:30:24.717Z,5.40
2019-04-04T01:32:55.487Z,5.30
2019-04-04T01:35:25.991Z,5.30
2019-04-04T01:37:58.127Z,5.40
2019-04-04T01:42:55.310Z,5.40
2019-04-04T01:45:25.762Z,5.20
2019-04-04T01:47:56.214Z,5.20
2019-04-04T01:50:27.342Z,5.20
2019-04-04T01:52:59.372Z,5.10
2019-04-04T01:55:29.772Z,5.10
2019-04-04T01:58:01.026Z,5.10
2019-04-04T02:00:31.416Z,5.10
2019-04-04T02:03:01.861Z,5.00
2019-04-04T02:05:32.206Z,4.90
2019-04-04T02:08:03.290Z,5.00
2019-04-04T02:10:34.932Z,4.90
2019-04-04T02:13:09.488Z,4.90
2019-04-04T02:15:38.467Z,5.00
2019-04-04T02:18:08.931Z,5.00
2019-04-04T02:20:39.247Z,5.00
2019-04-04T02:23:09.599Z,5.00
2019-04-04T02:25:40.017Z,4.90
2019-04-04T02:28:10.615Z,4.90
2019-04-04T02:30:41.041Z,4.90
2019-04-04T02:33:11.385Z,4.90
2019-04-04T02:35:43.664Z,4.90
2019-04-04T02:38:13.814Z,4.90
2019-04-04T02:40:44.972Z,5.00
2019-04-04T02:43:15.697Z,5.00
2019-04-04T02:45:46.147Z,5.00
2019-04-04T02:48:16.495Z,5.00
2019-04-04T02:50:47.081Z,5.00
2019-04-04T02:53:20.346Z,4.90
2019-04-04T02:55:49.566Z,4.90
2019-04-04T02:58:20.734Z,4.90
2019-04-04T03:00:51.156Z,4.90
2019-04-04T03:03:21.700Z,4.90
2019-04-04T03:05:52.444Z,4.90
2019-04-04T03:08:22.842Z,4.90
2019-04-04T03:10:54.360Z,4.90
2019-04-04T03:13:25.838Z,4.90
2019-04-04T03:15:56.439Z,4.80
2019-04-04T03:18:27.308Z,4.80
2019-04-04T03:20:57.738Z,4.80
2019-04-04T03:23:28.210Z,4.80
2019-04-04T03:25:58.599Z,4.80
2019-04-04T03:28:31.382Z,4.90
2019-04-04T03:31:03.066Z,4.90
2019-04-04T03:33:33.121Z,4.90
2019-04-04T03:36:03.623Z,5.00
2019-04-04T03:38:34.090Z,5.00
2019-04-04T03:41:04.700Z,5.00
2019-04-04T03:43:35.189Z,5.00
2019-04-04T03:46:05.546Z,4.90
2019-04-04T03:48:35.900Z,4.90
2019-04-04T03:51:06.361Z,4.90
2019-04-04T03:53:41.120Z,4.90
2019-04-04T03:56:11.488Z,5.00
2019-04-04T03:58:42.817Z,4.90
2019-04-04T04:01:14.630Z,4.70
2019-04-04T04:03:45.100Z,4.80
2019-04-04T04:06:15.554Z,4.80
2019-04-04T04:08:46.737Z,4.80
2019-04-04T04:11:17.185Z,4.80
2019-04-04T04:13:49.841Z,4.80
2019-04-04T04:16:20.097Z,4.80
2019-04-04T04:18:54.002Z,4.80
2019-04-04T04:21:25.187Z,4.80
2019-04-04T04:23:57.154Z,4.80
2019-04-04T04:26:28.774Z,4.80
2019-04-04T04:28:59.204Z,4.80
2019-04-04T04:31:29.700Z,4.80
2019-04-04T04:34:01.599Z,4.80
2019-04-04T04:36:32.599Z,4.80
2019-04-04T04:39:03.006Z,4.80
2019-04-04T04:41:34.160Z,4.70
2019-04-04T04:44:06.795Z,4.60
2019-04-04T04:46:37.377Z,4.70
2019-04-04T04:49:07.794Z,4.70
2019-04-04T04:51:38.197Z,4.80
2019-04-04T04:54:08.832Z,4.80
2019-04-04T04:56:39.194Z,4.70
2019-04-04T04:59:11.078Z,4.80
2019-04-04T05:01:42.316Z,4.80
2019-04-04T05:04:14.743Z,4.80
2019-04-04T05:06:46.620Z,4.80
2019-04-04T05:09:16.960Z,4.80
2019-04-04T05:11:48.091Z,4.80
2019-04-04T05:14:19.503Z,4.80
2019-04-04T05:16:49.910Z,4.70
2019-04-04T05:19:20.473Z,4.70
2019-04-04T05:21:51.556Z,4.70
2019-04-04T05:24:21.887Z,4.70
2019-04-04T05:26:52.314Z,4.70
2019-04-04T05:29:22.806Z,4.70
2019-04-04T05:32:05.476Z,4.70
2019-04-04T05:34:36.270Z,4.70
2019-04-04T05:37:07.382Z,4.70
2019-04-04T05:39:38.254Z,4.70
2019-04-04T05:42:08.611Z,4.80
2019-04-04T05:44:41.275Z,4.80
2019-04-04T05:47:11.262Z,4.80
2019-04-04T05:49:41.711Z,4.80
2019-04-04T05:52:13.143Z,4.80
2019-04-04T05:54:43.486Z,4.80
2019-04-04T05:57:13.913Z,4.80
2019-04-04T05:59:44.281Z,4.90
2019-04-04T06:02:14.742Z,4.90
2019-04-04T06:04:45.204Z,4.90
2019-04-04T06:07:16.641Z,4.90
2019-04-04T06:09:47.431Z,4.90
2019-04-04T06:12:17.822Z,5.00
2019-04-04T06:14:48.291Z,5.00
2019-04-04T06:17:18.604Z,5.10
2019-04-04T06:19:48.979Z,5.10
2019-04-04T06:22:21.183Z,5.20
2019-04-04T06:24:52.190Z,5.20
2019-04-04T06:27:22.884Z,5.20
2019-04-04T06:29:58.557Z,5.10
2019-04-04T06:32:30.964Z,5.10
2019-04-04T06:35:01.309Z,5.20
2019-04-04T06:37:34.178Z,5.40
2019-04-04T06:40:04.142Z,5.50
2019-04-04T06:42:36.059Z,5.60
2019-04-04T06:45:06.878Z,5.70
2019-04-04T06:47:37.258Z,5.80
2019-04-04T06:50:08.456Z,5.80
2019-04-04T06:52:39.079Z,5.90
2019-04-04T06:55:09.765Z,6.00
2019-04-04T06:57:41.433Z,6.00
2019-04-04T07:00:15.412Z,6.00
2019-04-04T07:02:47.193Z,6.10
2019-04-04T07:05:16.394Z,6.00
2019-04-04T07:07:47.507Z,6.10
2019-04-04T07:10:21.029Z,6.20
2019-04-04T07:13:05.924Z,6.20
2019-04-04T07:15:24.198Z,6.20
2019-04-04T07:17:54.587Z,6.30
2019-04-04T07:20:24.927Z,6.40
2019-04-04T07:22:55.973Z,6.30
2019-04-04T07:25:26.855Z,6.40
2019-04-04T07:27:57.636Z,6.60
2019-04-04T07:30:28.500Z,6.70
2019-04-04T07:32:59.618Z,6.70
2019-04-04T07:35:29.947Z,6.60
2019-04-04T07:38:00.445Z,6.70
2019-04-04T07:40:31.804Z,6.70
2019-04-04T07:43:02.110Z,6.80
2019-04-04T07:45:32.552Z,6.90
2019-04-04T07:48:04.176Z,7.00
2019-04-04T07:50:34.623Z,7.10
2019-04-04T07:53:05.350Z,7.20
2019-04-04T07:55:36.191Z,7.10
2019-04-04T07:58:06.962Z,7.20
2019-04-04T08:00:37.582Z,7.30
2019-04-04T08:03:07.929Z,7.40
2019-04-04T08:05:38.444Z,7.40
2019-04-04T08:08:09.925Z,7.50
2019-04-04T08:10:44.019Z,7.60
2019-04-04T08:13:14.542Z,7.60
2019-04-04T08:15:45.170Z,7.60
2019-04-04T08:18:15.611Z,7.80
2019-04-04T08:20:47.180Z,8.00
2019-04-04T08:23:17.669Z,8.10
2019-04-04T08:25:48.007Z,8.20
2019-04-04T08:28:19.384Z,8.30
2019-04-04T08:30:49.856Z,8.20
2019-04-04T08:33:21.070Z,8.30
2019-04-04T08:35:51.550Z,8.40
2019-04-04T08:38:25.233Z,8.70
2019-04-04T08:40:56.084Z,8.80
2019-04-04T08:43:26.892Z,8.80
2019-04-04T08:45:58.742Z,9.00
2019-04-04T08:48:29.757Z,9.00
2019-04-04T08:51:00.285Z,9.10
2019-04-04T08:53:39.659Z,9.00
2019-04-04T08:56:04.206Z,8.90
2019-04-04T08:58:34.644Z,8.70
2019-04-04T09:01:05.256Z,8.50
2019-04-04T09:03:35.965Z,8.50
2019-04-04T09:06:06.439Z,8.50
2019-04-04T09:08:36.849Z,8.70
2019-04-04T09:11:07.722Z,8.40
2019-04-04T09:13:39.478Z,8.40
2019-04-04T09:16:09.835Z,8.10
2019-04-04T09:18:41.223Z,8.20
2019-04-04T09:21:11.603Z,8.30
2019-04-04T09:23:42.038Z,8.20
2019-04-04T09:26:13.409Z,8.10
2019-04-04T09:28:43.779Z,8.20
2019-04-04T09:31:14.270Z,8.30
2019-04-04T09:33:44.679Z,8.40
2019-04-04T09:36:15.067Z,8.40
2019-04-04T09:38:45.692Z,8.50
2019-04-04T09:41:16.202Z,8.50
2019-04-04T09:43:46.775Z,8.50
2019-04-04T09:46:17.128Z,8.50
2019-04-04T09:48:48.528Z,8.60
2019-04-04T09:51:18.907Z,8.70
2019-04-04T09:53:53.340Z,9.30
2019-04-04T09:56:21.455Z,9.50
2019-04-04T09:58:54.791Z,9.50
2019-04-04T10:01:23.934Z,9.70
2019-04-04T10:03:54.599Z,10.10
2019-04-04T10:06:24.931Z,10.30
2019-04-04T10:08:55.414Z,10.40
2019-04-04T10:11:25.800Z,10.70
2019-04-04T10:13:57.029Z,10.80
2019-04-04T10:16:33.592Z,10.60
2019-04-04T10:19:04.278Z,10.50
2019-04-04T10:21:34.759Z,10.50
2019-04-04T10:24:05.072Z,10.60
2019-04-04T10:26:35.479Z,10.40
2019-04-04T10:29:05.903Z,10.20
2019-04-04T10:31:36.379Z,10.30
2019-04-04T10:34:07.125Z,10.30
2019-04-04T10:36:37.408Z,11.00
2019-04-04T10:39:12.910Z,11.40
2019-04-04T10:41:44.074Z,11.70
2019-04-04T10:44:26.612Z,12.10
2019-04-04T10:46:57.137Z,12.90
2019-04-04T10:49:30.040Z,13.70
2019-04-04T10:52:01.119Z,13.10
2019-04-04T10:54:31.557Z,12.90
2019-04-04T10:57:01.986Z,13.70
2019-04-04T10:59:39.499Z,14.00
2019-04-04T11:02:12.578Z,14.70
2019-04-04T11:04:47.964Z,14.60
2019-04-04T11:07:18.714Z,15.40
2019-04-04T11:09:49.108Z,14.60
2019-04-04T11:12:19.886Z,14.60
2019-04-04T11:14:57.328Z,14.30
2019-04-04T11:17:27.675Z,14.40
2019-04-04T11:19:58.103Z,14.70
2019-04-04T11:22:29.960Z,14.50
2019-04-04T11:25:00.623Z,15.10
2019-04-04T11:27:31.519Z,14.50
2019-04-04T11:30:01.863Z,14.00
2019-04-04T11:32:32.211Z,13.00
2019-04-04T11:35:02.684Z,12.90
2019-04-04T11:37:33.222Z,12.90
2019-04-04T11:40:04.004Z,12.90
2019-04-04T11:42:35.059Z,12.90
2019-04-04T11:45:05.611Z,13.40
2019-04-04T11:47:36.259Z,13.30
2019-04-04T11:50:09.347Z,13.20
2019-04-04T11:52:39.847Z,13.40
2019-04-04T11:55:10.410Z,13.70
2019-04-04T11:57:40.801Z,13.90
2019-04-04T12:00:14.912Z,14.20
2019-04-04T12:02:45.494Z,13.80
2019-04-04T12:05:15.916Z,14.10
2019-04-04T12:07:46.367Z,14.50
2019-04-04T12:10:16.944Z,15.30
2019-04-04T12:12:47.239Z,15.70
2019-04-04T12:15:18.655Z,15.00
2019-04-04T12:17:49.158Z,13.70
2019-04-04T12:20:20.663Z,13.30
2019-04-04T12:22:51.110Z,12.70
2019-04-04T12:25:21.523Z,12.80
2019-04-04T12:27:52.514Z,12.60
2019-04-04T12:30:22.961Z,12.90
2019-04-04T12:32:53.468Z,12.90
2019-04-04T12:35:23.935Z,12.90
2019-04-04T12:37:55.051Z,12.80
2019-04-04T12:40:25.494Z,12.70
2019-04-04T12:42:55.877Z,12.50
2019-04-04T12:45:26.525Z,12.20
2019-04-04T12:47:57.124Z,12.20
2019-04-04T12:50:27.594Z,11.80
2019-04-04T12:53:01.532Z,12.10
2019-04-04T12:55:32.471Z,12.00
2019-04-04T12:58:02.872Z,12.10
2019-04-04T13:00:33.374Z,12.10
2019-04-04T13:03:04.161Z,12.00
2019-04-04T13:05:34.919Z,11.70
2019-04-04T13:08:05.379Z,12.00
2019-04-04T13:10:36.800Z,12.20
2019-04-04T13:13:07.387Z,12.70
2019-04-04T13:15:39.211Z,12.60
2019-04-04T13:18:09.663Z,12.40
2019-04-04T13:20:40.200Z,12.20
2019-04-04T13:23:10.599Z,12.00
2019-04-04T13:25:40.919Z,11.80
2019-04-04T13:28:11.252Z,11.60
2019-04-04T13:30:42.227Z,11.50
2019-04-04T13:33:14.499Z,11.70
2019-04-04T13:35:44.889Z,11.50
2019-04-04T13:38:15.283Z,11.60
2019-04-04T13:40:46.135Z,11.50
2019-04-04T13:43:16.617Z,11.50
2019-04-04T13:45:47.117Z,11.40
2019-04-04T13:48:17.647Z,11.30
2019-04-04T13:50:48.069Z,11.40
2019-04-04T13:53:20.846Z,11.50
2019-04-04T13:55:52.527Z,11.50
2019-04-04T13:58:23.017Z,11.60
2019-04-04T14:00:54.079Z,11.80
2019-04-04T14:03:24.611Z,11.60
2019-04-04T14:05:55.091Z,11.70
2019-04-04T14:08:25.439Z,11.70
2019-04-04T14:10:58.309Z,11.80
2019-04-04T14:13:28.695Z,12.00
2019-04-04T14:16:00.815Z,12.20
2019-04-04T14:18:39.592Z,12.20
2019-04-04T14:21:04.276Z,12.30
2019-04-04T14:23:35.123Z,12.40
2019-04-04T14:26:05.597Z,12.60
2019-04-04T14:28:35.955Z,12.60
2019-04-04T14:31:06.647Z,12.60
2019-04-04T14:33:37.887Z,12.30
2019-04-04T14:36:08.348Z,12.30
2019-04-04T14:38:40.745Z,12.00
2019-04-04T14:41:11.937Z,11.70
2019-04-04T14:43:43.536Z,11.80
2019-04-04T14:46:14.281Z,11.90
2019-04-04T14:48:44.731Z,11.70
2019-04-04T14:51:15.521Z,11.60
2019-04-04T14:53:48.299Z,11.70
2019-04-04T14:56:19.157Z,11.60
2019-04-04T14:58:53.908Z,11.60
2019-04-04T15:01:25.416Z,11.40
2019-04-04T15:03:57.495Z,11.40
2019-04-04T15:06:31.141Z,11.30
2019-04-04T15:09:02.255Z,11.30
2019-04-04T15:11:35.410Z,11.50
2019-04-04T15:14:07.710Z,11.50
2019-04-04T15:16:42.562Z,11.40
2019-04-04T15:19:14.576Z,11.50
2019-04-04T15:21:46.288Z,11.50
2019-04-04T15:24:18.145Z,11.30
2019-04-04T15:26:58.751Z,11.30
2019-04-04T15:29:29.468Z,11.20
2019-04-04T15:32:02.043Z,11.10
2019-04-04T15:34:44.264Z,11.10
2019-04-04T15:37:14.628Z,10.90
2019-04-04T15:39:45.549Z,10.90
2019-04-04T15:42:17.718Z,11.00
2019-04-04T15:44:53.074Z,11.00
2019-04-04T15:47:24.933Z,10.90
2019-04-04T15:49:57.719Z,11.00
2019-04-04T15:52:33.852Z,10.90
2019-04-04T15:55:07.452Z,10.90
2019-04-04T15:57:39.934Z,10.90
2019-04-04T16:00:11.770Z,10.90
2019-04-04T16:02:43.795Z,10.80
2019-04-04T16:05:14.948Z,10.70
2019-04-04T16:07:47.219Z,10.70
2019-04-04T16:10:17.924Z,10.60
2019-04-04T16:12:52.600Z,10.60
2019-04-04T16:15:23.717Z,10.50
2019-04-04T16:17:54.795Z,10.50
2019-04-04T16:20:26.721Z,10.50
2019-04-04T16:22:57.905Z,10.50
2019-04-04T16:25:31.536Z,10.50
2019-04-04T16:28:03.899Z,10.50
2019-04-04T16:30:34.534Z,10.40
2019-04-04T16:33:08.167Z,10.40
2019-04-04T16:35:42.292Z,10.40
2019-04-04T16:38:34.268Z,10.30
2019-04-04T16:41:04.722Z,10.30
2019-04-04T16:43:36.892Z,10.30
2019-04-04T16:46:13.316Z,10.30
2019-04-04T16:48:44.416Z,10.30
2019-04-04T16:51:16.368Z,10.30
2019-04-04T16:53:52.183Z,10.30
2019-04-04T16:56:25.272Z,10.30
2019-04-04T16:58:59.013Z,10.40
2019-04-04T17:01:31.149Z,10.40
2019-04-04T17:04:03.463Z,10.30
2019-04-04T17:06:36.247Z,10.30
2019-04-04T17:09:10.331Z,10.20
2019-04-04T17:11:41.831Z,10.30
2019-04-04T17:14:24.275Z,10.20
2019-04-04T17:16:56.715Z,10.20
2019-04-04T17:19:35.332Z,10.20
2019-04-04T17:22:12.207Z,10.20
2019-04-04T17:24:46.250Z,10.20
2019-04-04T17:27:17.987Z,10.10
2019-04-04T17:29:50.416Z,10.00
2019-04-04T17:32:23.598Z,10.00
2019-04-04T17:34:57.093Z,10.00
2019-04-04T17:37:37.095Z,9.90
2019-04-04T17:40:18.010Z,9.80
2019-04-04T17:42:49.725Z,9.70
2019-04-04T17:45:21.838Z,9.80
2019-04-04T17:47:54.561Z,9.80
2019-04-04T17:50:30.179Z,9.80
2019-04-04T17:53:02.865Z,9.70
2019-04-04T17:55:39.188Z,9.70
2019-04-04T17:58:16.334Z,9.60
2019-04-04T18:00:47.140Z,9.50
2019-04-04T18:03:18.390Z,9.50
2019-04-04T18:05:53.153Z,9.50
2019-04-04T18:08:25.253Z,9.40
2019-04-04T18:10:55.686Z,9.50
2019-04-04T18:13:26.122Z,9.50
2019-04-04T18:15:57.112Z,9.40
2019-04-04T18:18:28.236Z,9.40
2019-04-04T18:20:59.708Z,9.30
2019-04-04T18:23:32.308Z,9.40
2019-04-04T18:26:03.920Z,9.40
2019-04-04T18:28:40.443Z,9.30
2019-04-04T18:31:14.378Z,9.30
2019-04-04T18:33:49.552Z,9.40
2019-04-04T18:36:21.374Z,9.30
2019-04-04T18:38:58.147Z,9.40
2019-04-04T18:41:33.697Z,9.40
2019-04-04T18:44:07.575Z,9.40
2019-04-04T18:46:41.435Z,9.40
2019-04-04T18:49:13.597Z,9.40
2019-04-04T18:51:44.665Z,9.40
2019-04-04T18:54:16.672Z,9.30
2019-04-04T18:56:51.076Z,9.30
2019-04-04T18:59:33.263Z,9.20
2019-04-04T19:02:06.780Z,9.30
2019-04-04T19:04:39.527Z,9.30
2019-04-04T19:07:14.147Z,9.20
2019-04-04T19:09:45.752Z,9.30
2019-04-04T19:12:20.635Z,9.20
2019-04-04T19:14:53.416Z,9.20
2019-04-04T19:17:27.106Z,9.10
2019-04-04T19:20:15.292Z,9.10
2019-04-04T19:22:50.868Z,9.10
2019-04-04T19:25:21.243Z,9.10
2019-04-04T19:27:52.591Z,9.00
2019-04-04T19:30:26.119Z,9.00
2019-04-04T19:32:58.190Z,8.90
2019-04-04T19:35:51.479Z,8.90
2019-04-04T19:38:23.684Z,8.90
2019-04-04T19:40:56.419Z,8.80
2019-04-04T19:43:31.016Z,8.80
2019-04-04T19:46:03.270Z,8.70
2019-04-04T19:48:39.167Z,8.70
2019-04-04T19:51:13.061Z,8.70
2019-04-04T19:53:45.712Z,8.70
2019-04-04T19:56:18.193Z,8.60
2019-04-04T19:58:49.951Z,8.60
2019-04-04T20:01:20.562Z,8.60
2019-04-04T20:03:54.447Z,8.60
2019-04-04T20:06:26.723Z,8.60
2019-04-04T20:08:57.986Z,8.60
2019-04-04T20:11:28.387Z,8.50
2019-04-04T20:14:00.919Z,8.50
2019-04-04T20:16:35.019Z,8.50
2019-04-04T20:19:10.702Z,8.40
2019-04-04T20:21:42.963Z,8.40
2019-04-04T20:24:35.559Z,8.40
2019-04-04T20:27:06.840Z,8.40
2019-04-04T20:29:37.591Z,8.40
2019-04-04T20:32:11.516Z,8.40
2019-04-04T20:34:41.902Z,8.30
2019-04-04T20:37:12.378Z,8.30
2019-04-04T20:39:45.256Z,8.30
2019-04-04T20:42:16.120Z,8.40
2019-04-04T20:44:49.127Z,8.30
2019-04-04T20:47:19.622Z,8.30
2019-04-04T20:49:51.319Z,8.30
2019-04-04T20:52:24.938Z,8.40
2019-04-04T20:54:58.386Z,8.30
2019-04-04T20:57:30.675Z,8.30
2019-04-04T21:00:01.868Z,8.30
2019-04-04T21:02:35.313Z,8.30
2019-04-04T21:05:10.091Z,8.30
2019-04-04T21:07:42.943Z,8.30
2019-04-04T21:10:33.565Z,8.30
2019-04-04T21:13:07.031Z,8.30
2019-04-04T21:15:39.881Z,8.20
2019-04-04T21:18:14.006Z,8.30
2019-04-04T21:20:47.487Z,8.30
2019-04-04T21:23:31.414Z,8.30
2019-04-04T21:26:09.164Z,8.30
2019-04-04T21:28:40.497Z,8.30
2019-04-04T21:31:16.868Z,8.20
2019-04-04T21:33:52.801Z,8.20
2019-04-04T21:36:29.920Z,8.20
2019-04-04T21:39:09.843Z,8.10
2019-04-04T21:41:41.592Z,8.00
2019-04-04T21:44:16.514Z,8.00
2019-04-04T21:46:52.491Z,8.00
2019-04-04T21:49:34.898Z,8.10
2019-04-04T21:52:10.490Z,8.10
2019-04-04T21:54:44.795Z,8.10
2019-04-04T21:57:17.996Z,8.00
2019-04-04T21:59:53.295Z,8.10
2019-04-04T22:02:31.809Z,8.10
2019-04-04T22:05:05.747Z,8.00
2019-04-04T22:07:36.329Z,8.00
2019-04-04T22:10:25.874Z,8.00
2019-04-04T22:12:59.321Z,8.00
2019-04-04T22:15:35.183Z,8.00
2019-04-04T22:18:11.643Z,7.90
2019-04-04T22:20:42.971Z,7.90
2019-04-04T22:23:15.871Z,7.90
2019-04-04T22:25:48.896Z,7.90
2019-04-04T22:28:22.791Z,7.90
2019-04-04T22:30:55.980Z,7.80
2019-04-04T22:33:39.397Z,7.80
2019-04-04T22:36:11.797Z,7.70
2019-04-04T22:38:45.021Z,7.80
2019-04-04T22:41:22.041Z,7.70
2019-04-04T22:44:03.293Z,7.70
2019-04-04T22:46:31.519Z,7.70
2019-04-04T22:49:08.081Z,7.60
2019-04-04T22:51:39.959Z,7.60
2019-04-04T22:54:21.159Z,7.60
2019-04-04T22:56:55.641Z,7.60
2019-04-04T22:59:26.476Z,7.70
2019-04-04T23:01:59.591Z,7.60
2019-04-04T23:04:33.815Z,7.60
2019-04-04T23:07:17.155Z,7.60
2019-04-04T23:09:54.255Z,7.60
2019-04-04T23:12:26.151Z,7.50
2019-04-04T23:15:00.711Z,7.30
2019-04-04T23:17:31.151Z,7.20
2019-04-04T23:20:01.571Z,7.20
2019-04-04T23:22:32.727Z,7.20
2019-04-04T23:25:11.385Z,7.10
2019-04-04T23:27:54.100Z,7.20
2019-04-04T23:30:30.698Z,7.10
2019-04-04T23:33:01.003Z,7.10
2019-04-04T23:35:34.203Z,7.00
2019-04-04T23:38:10.691Z,6.90
2019-04-04T23:40:43.701Z,7.00
2019-04-04T23:43:15.775Z,7.00
2019-04-04T23:45:48.817Z,7.00
2019-04-04T23:48:19.707Z,7.00
2019-04-04T23:50:50.095Z,7.00
2019-04-04T23:53:21.500Z,6.90
2019-04-04T23:55:51.907Z,7.00
2019-04-04T23:58:28.651Z,7.00
